Portada
METAR-TAF:

METAR-TAF

Aeroports :

Kashgar, Xina

latitud: 39-28N, longitud: 075-59E, altitud: 1291 m

Observació

L'informe es va fer fa 38 minuts, a les 10:00 UTC
Vent 6 kt del Sud, variant entre Sud/Sud-Est i Sud-Oest
Temperatura 13°C
Humitat 18%
Pressió 1013 hPa
Visibilitat 10 km o més

METAR: ZWSH 271000Z AUTO 18003MPS 150V230 9999 // ////// 13/M11 Q1013

Hora: 18:38 (10:38 UTC)

Pronòstic

L'informe es va fer fa 7 hores i 34 minuts, a les 03:04 UTC
Pronòstic vàlid del 27 a les 06 UTC al 28 a les 06 UTC
Vent 8 kt del Est/Sud-Est
Visibilitat: 6000 m
Núvols disperses a una alçada de 4000 ft
Evolucionant progressivament
l' 27 a les 15 UTC al 27 a les 16 UTC
Vent 10 kt del Nord-Oest

TAF: ZWSH 270304Z 2706/2806 12004MPS 6000 SCT040 TX13/2709Z TN05/2801Z BECMG 2715/2716 32005MPS

Observacions i pronòstics meteorològics de més de 4000 aeroports (METAR i TAF).

Les estacions disponibles són els punts grocs i vermells al mapa.

Posi el ratolí al punt desitjat per veure el nom de l'estació.

Feu clic per veure les observacions i els pronòstics meteorològics.

Per canviar el mapa: feu clic els botons verds amb una creu de color negre per apropar; al botó verd amb un guió per allunyar la imatge; o en les fletxes verdes per a mapes adjacents.


METAR-TAF: